sensor_id;sensor_type;location;lat;lon;timestamp;pressure;altitude;pressure_sealevel;temperature;humidity
39267;BME280;24967;51.154;13.812;2022-12-07T00:00:51;99251.59;;;3.51;93.90
39267;BME280;24967;51.154;13.812;2022-12-07T00:03:18;99259.25;;;3.30;94.50
39267;BME280;24967;51.154;13.812;2022-12-07T00:05:46;99250.50;;;3.42;93.88
39267;BME280;24967;51.154;13.812;2022-12-07T00:08:12;99246.41;;;3.62;92.42
39267;BME280;24967;51.154;13.812;2022-12-07T00:10:39;99243.00;;;3.73;92.42
39267;BME280;24967;51.154;13.812;2022-12-07T00:13:05;99248.28;;;3.60;92.51
39267;BME280;24967;51.154;13.812;2022-12-07T00:15:33;99243.78;;;3.38;92.13
39267;BME280;24967;51.154;13.812;2022-12-07T00:17:59;99248.94;;;3.39;92.08
39267;BME280;24967;51.154;13.812;2022-12-07T00:20:26;99248.59;;;3.20;93.25
39267;BME280;24967;51.154;13.812;2022-12-07T00:22:54;99249.19;;;3.48;91.24
39267;BME280;24967;51.154;13.812;2022-12-07T00:25:20;99243.09;;;3.47;91.60
39267;BME280;24967;51.154;13.812;2022-12-07T00:27:47;99245.06;;;3.32;91.99
39267;BME280;24967;51.154;13.812;2022-12-07T00:30:13;99234.28;;;3.48;91.44
39267;BME280;24967;51.154;13.812;2022-12-07T00:32:40;99240.03;;;3.53;90.96
39267;BME280;24967;51.154;13.812;2022-12-07T00:35:06;99229.97;;;3.47;91.07
39267;BME280;24967;51.154;13.812;2022-12-07T00:37:33;99235.31;;;3.70;89.67
39267;BME280;24967;51.154;13.812;2022-12-07T00:40:02;99231.41;;;3.86;88.28
39267;BME280;24967;51.154;13.812;2022-12-07T00:42:28;99233.69;;;3.80;88.03
39267;BME280;24967;51.154;13.812;2022-12-07T00:44:55;99230.75;;;3.60;88.67
39267;BME280;24967;51.154;13.812;2022-12-07T00:47:21;99229.19;;;3.58;89.18
39267;BME280;24967;51.154;13.812;2022-12-07T00:49:47;99221.31;;;3.69;88.96
39267;BME280;24967;51.154;13.812;2022-12-07T00:52:14;99231.09;;;3.91;87.72
39267;BME280;24967;51.154;13.812;2022-12-07T00:54:40;99226.03;;;3.77;87.38
39267;BME280;24967;51.154;13.812;2022-12-07T00:57:08;99216.34;;;3.42;89.34
39267;BME280;24967;51.154;13.812;2022-12-07T00:59:35;99220.75;;;3.41;89.42
39267;BME280;24967;51.154;13.812;2022-12-07T01:02:01;99220.03;;;3.39;90.40
39267;BME280;24967;51.154;13.812;2022-12-07T01:04:28;99222.00;;;3.49;89.68
39267;BME280;24967;51.154;13.812;2022-12-07T01:06:54;99223.94;;;3.58;89.06
39267;BME280;24967;51.154;13.812;2022-12-07T01:09:21;99225.72;;;3.57;88.87
39267;BME280;24967;51.154;13.812;2022-12-07T01:11:47;99222.09;;;3.47;89.12
39267;BME280;24967;51.154;13.812;2022-12-07T01:14:15;99219.97;;;3.52;89.21
39267;BME280;24967;51.154;13.812;2022-12-07T01:16:41;99219.38;;;3.60;88.80
39267;BME280;24967;51.154;13.812;2022-12-07T01:19:08;99216.94;;;3.70;88.39
39267;BME280;24967;51.154;13.812;2022-12-07T01:21:34;99219.09;;;3.87;87.17
39267;BME280;24967;51.154;13.812;2022-12-07T01:24:03;99220.19;;;3.96;86.56
39267;BME280;24967;51.154;13.812;2022-12-07T01:26:29;99212.19;;;3.86;86.75
39267;BME280;24967;51.154;13.812;2022-12-07T01:28:56;99209.94;;;4.04;86.39
39267;BME280;24967;51.154;13.812;2022-12-07T01:31:25;99210.56;;;3.72;87.14
39267;BME280;24967;51.154;13.812;2022-12-07T01:33:53;99205.25;;;3.85;86.90
39267;BME280;24967;51.154;13.812;2022-12-07T01:36:21;99209.31;;;3.89;86.80
39267;BME280;24967;51.154;13.812;2022-12-07T01:38:48;99213.59;;;3.90;85.94
39267;BME280;24967;51.154;13.812;2022-12-07T01:41:16;99216.00;;;3.93;86.21
39267;BME280;24967;51.154;13.812;2022-12-07T01:46:26;99214.84;;;3.97;86.29
39267;BME280;24967;51.154;13.812;2022-12-07T01:48:52;99222.09;;;3.82;87.23
39267;BME280;24967;51.154;13.812;2022-12-07T01:51:19;99224.34;;;3.76;87.27
39267;BME280;24967;51.154;13.812;2022-12-07T01:53:45;99215.72;;;3.74;87.00
39267;BME280;24967;51.154;13.812;2022-12-07T01:56:13;99226.75;;;3.90;86.55
39267;BME280;24967;51.154;13.812;2022-12-07T01:58:42;99217.75;;;3.70;87.42
39267;BME280;24967;51.154;13.812;2022-12-07T02:01:09;99211.38;;;3.97;86.54
39267;BME280;24967;51.154;13.812;2022-12-07T02:03:37;99208.97;;;4.05;85.99
39267;BME280;24967;51.154;13.812;2022-12-07T02:06:05;99212.22;;;4.08;86.00
39267;BME280;24967;51.154;13.812;2022-12-07T02:08:32;99220.56;;;3.91;86.37
39267;BME280;24967;51.154;13.812;2022-12-07T02:10:58;99212.38;;;3.72;87.49
39267;BME280;24967;51.154;13.812;2022-12-07T02:13:26;99210.75;;;3.93;86.87
39267;BME280;24967;51.154;13.812;2022-12-07T02:16:00;99205.72;;;3.90;86.47
39267;BME280;24967;51.154;13.812;2022-12-07T02:18:33;99215.66;;;3.51;88.37
39267;BME280;24967;51.154;13.812;2022-12-07T02:21:05;99208.47;;;3.42;89.04
39267;BME280;24967;51.154;13.812;2022-12-07T02:23:40;99209.75;;;3.36;89.50
39267;BME280;24967;51.154;13.812;2022-12-07T02:26:16;99205.63;;;3.21;90.90
39267;BME280;24967;51.154;13.812;2022-12-07T02:28:54;99206.84;;;3.04;91.64
39267;BME280;24967;51.154;13.812;2022-12-07T02:31:23;99199.41;;;2.98;92.57
39267;BME280;24967;51.154;13.812;2022-12-07T02:33:52;99197.50;;;3.00;91.50
39267;BME280;24967;51.154;13.812;2022-12-07T02:36:21;99194.44;;;3.06;90.44
39267;BME280;24967;51.154;13.812;2022-12-07T02:38:52;99194.25;;;3.20;89.70
39267;BME280;24967;51.154;13.812;2022-12-07T02:41:22;99197.66;;;3.34;88.50
39267;BME280;24967;51.154;13.812;2022-12-07T02:43:50;99190.25;;;3.04;89.83
39267;BME280;24967;51.154;13.812;2022-12-07T02:46:20;99189.41;;;3.27;89.34
39267;BME280;24967;51.154;13.812;2022-12-07T02:48:48;99197.53;;;3.24;88.84
39267;BME280;24967;51.154;13.812;2022-12-07T02:51:17;99189.56;;;3.13;89.91
39267;BME280;24967;51.154;13.812;2022-12-07T02:53:43;99190.91;;;3.18;90.37
39267;BME280;24967;51.154;13.812;2022-12-07T02:56:11;99180.50;;;3.17;89.71
39267;BME280;24967;51.154;13.812;2022-12-07T02:58:42;99176.66;;;3.10;89.46
39267;BME280;24967;51.154;13.812;2022-12-07T03:01:30;99173.22;;;3.09;89.73
39267;BME280;24967;51.154;13.812;2022-12-07T03:04:02;99165.78;;;3.27;87.82
39267;BME280;24967;51.154;13.812;2022-12-07T03:06:33;99159.63;;;3.51;87.34
39267;BME280;24967;51.154;13.812;2022-12-07T03:09:02;99153.69;;;3.71;85.33
39267;BME280;24967;51.154;13.812;2022-12-07T03:11:33;99155.91;;;3.42;85.93
39267;BME280;24967;51.154;13.812;2022-12-07T03:14:02;99157.31;;;3.11;87.11
39267;BME280;24967;51.154;13.812;2022-12-07T03:16:37;99151.63;;;2.93;88.45
39267;BME280;24967;51.154;13.812;2022-12-07T03:19:07;99151.97;;;2.88;88.53
39267;BME280;24967;51.154;13.812;2022-12-07T03:21:37;99154.38;;;2.91;88.06
39267;BME280;24967;51.154;13.812;2022-12-07T03:24:05;99146.09;;;2.85;88.65
39267;BME280;24967;51.154;13.812;2022-12-07T03:26:34;99159.00;;;2.88;88.55
39267;BME280;24967;51.154;13.812;2022-12-07T03:29:02;99154.84;;;2.96;87.99
39267;BME280;24967;51.154;13.812;2022-12-07T03:31:31;99148.50;;;2.88;88.27
39267;BME280;24967;51.154;13.812;2022-12-07T03:34:02;99152.03;;;2.63;89.66
39267;BME280;24967;51.154;13.812;2022-12-07T03:36:34;99149.97;;;2.55;89.15
39267;BME280;24967;51.154;13.812;2022-12-07T03:39:03;99147.22;;;2.57;89.17
39267;BME280;24967;51.154;13.812;2022-12-07T03:41:31;99147.44;;;2.53;90.21
39267;BME280;24967;51.154;13.812;2022-12-07T03:43:58;99147.97;;;2.59;89.87
39267;BME280;24967;51.154;13.812;2022-12-07T03:46:27;99143.16;;;2.52;89.41
39267;BME280;24967;51.154;13.812;2022-12-07T03:48:59;99145.25;;;2.47;89.34
39267;BME280;24967;51.154;13.812;2022-12-07T03:51:31;99145.25;;;2.47;89.52
39267;BME280;24967;51.154;13.812;2022-12-07T03:54:02;99142.22;;;2.53;89.27
39267;BME280;24967;51.154;13.812;2022-12-07T03:56:31;99144.81;;;2.53;89.23
39267;BME280;24967;51.154;13.812;2022-12-07T03:58:58;99140.41;;;2.54;89.01
39267;BME280;24967;51.154;13.812;2022-12-07T04:01:25;99138.38;;;2.70;88.48
39267;BME280;24967;51.154;13.812;2022-12-07T04:03:51;99137.19;;;2.74;87.89
39267;BME280;24967;51.154;13.812;2022-12-07T04:06:18;99135.63;;;2.72;87.66
39267;BME280;24967;51.154;13.812;2022-12-07T04:08:46;99138.66;;;2.55;88.88
39267;BME280;24967;51.154;13.812;2022-12-07T04:11:12;99125.78;;;2.63;89.21
39267;BME280;24967;51.154;13.812;2022-12-07T04:13:38;99127.50;;;2.51;88.80
39267;BME280;24967;51.154;13.812;2022-12-07T04:16:19;99123.84;;;2.53;88.83
39267;BME280;24967;51.154;13.812;2022-12-07T04:18:45;99108.81;;;2.56;89.06
39267;BME280;24967;51.154;13.812;2022-12-07T04:21:12;99109.28;;;2.73;87.71
39267;BME280;24967;51.154;13.812;2022-12-07T04:23:38;99105.84;;;2.73;87.19
39267;BME280;24967;51.154;13.812;2022-12-07T04:26:06;99110.41;;;2.58;87.76
39267;BME280;24967;51.154;13.812;2022-12-07T04:28:32;99113.19;;;2.68;86.92
39267;BME280;24967;51.154;13.812;2022-12-07T04:30:59;99111.22;;;2.59;87.27
39267;BME280;24967;51.154;13.812;2022-12-07T04:33:25;99104.47;;;2.43;88.03
39267;BME280;24967;51.154;13.812;2022-12-07T04:35:52;99096.53;;;2.56;86.57
39267;BME280;24967;51.154;13.812;2022-12-07T04:38:18;99100.72;;;2.35;87.81
39267;BME280;24967;51.154;13.812;2022-12-07T04:40:45;99103.25;;;2.36;87.77
39267;BME280;24967;51.154;13.812;2022-12-07T04:43:13;99091.25;;;2.32;88.15
39267;BME280;24967;51.154;13.812;2022-12-07T04:45:39;99082.28;;;2.47;86.92
39267;BME280;24967;51.154;13.812;2022-12-07T04:48:05;99082.91;;;2.27;87.62
39267;BME280;24967;51.154;13.812;2022-12-07T04:50:32;99087.50;;;2.23;88.59
39267;BME280;24967;51.154;13.812;2022-12-07T04:52:58;99087.09;;;2.17;88.62
39267;BME280;24967;51.154;13.812;2022-12-07T04:55:24;99086.69;;;2.23;88.17
39267;BME280;24967;51.154;13.812;2022-12-07T04:57:51;99078.75;;;2.36;87.65
39267;BME280;24967;51.154;13.812;2022-12-07T05:00:19;99072.59;;;2.37;87.37
39267;BME280;24967;51.154;13.812;2022-12-07T05:02:46;99071.25;;;2.31;87.57
39267;BME280;24967;51.154;13.812;2022-12-07T05:05:12;99061.53;;;2.44;86.52
39267;BME280;24967;51.154;13.812;2022-12-07T05:07:38;99057.38;;;2.29;87.10
39267;BME280;24967;51.154;13.812;2022-12-07T05:10:05;99060.19;;;2.39;87.08
39267;BME280;24967;51.154;13.812;2022-12-07T05:12:32;99068.56;;;2.44;86.60
39267;BME280;24967;51.154;13.812;2022-12-07T05:14:58;99062.44;;;2.56;85.92
39267;BME280;24967;51.154;13.812;2022-12-07T05:17:26;99062.09;;;2.61;85.56
39267;BME280;24967;51.154;13.812;2022-12-07T05:19:52;99062.59;;;2.66;84.96
39267;BME280;24967;51.154;13.812;2022-12-07T05:22:19;99064.91;;;2.70;85.20
39267;BME280;24967;51.154;13.812;2022-12-07T05:24:45;99059.28;;;2.51;85.73
39267;BME280;24967;51.154;13.812;2022-12-07T05:27:12;99055.06;;;2.61;85.46
39267;BME280;24967;51.154;13.812;2022-12-07T05:29:38;99060.09;;;2.64;84.36
39267;BME280;24967;51.154;13.812;2022-12-07T05:32:04;99052.59;;;2.47;85.75
39267;BME280;24967;51.154;13.812;2022-12-07T05:34:32;99059.34;;;2.62;85.42
39267;BME280;24967;51.154;13.812;2022-12-07T05:36:59;99051.94;;;2.56;85.45
39267;BME280;24967;51.154;13.812;2022-12-07T05:39:25;99047.81;;;2.41;86.36
39267;BME280;24967;51.154;13.812;2022-12-07T05:41:51;99051.38;;;2.64;85.54
39267;BME280;24967;51.154;13.812;2022-12-07T05:44:35;99052.16;;;2.77;84.86
39267;BME280;24967;51.154;13.812;2022-12-07T05:47:01;99040.38;;;2.83;84.33
39267;BME280;24967;51.154;13.812;2022-12-07T05:49:28;99048.25;;;2.83;83.98
39267;BME280;24967;51.154;13.812;2022-12-07T05:51:56;99041.66;;;2.77;85.03
39267;BME280;24967;51.154;13.812;2022-12-07T05:54:22;99032.34;;;2.84;84.55
39267;BME280;24967;51.154;13.812;2022-12-07T05:56:49;99037.47;;;2.74;84.90
39267;BME280;24967;51.154;13.812;2022-12-07T05:59:15;99032.22;;;2.74;84.22
39267;BME280;24967;51.154;13.812;2022-12-07T06:01:50;99028.81;;;2.85;83.43
39267;BME280;24967;51.154;13.812;2022-12-07T06:04:17;99024.31;;;2.63;84.87
39267;BME280;24967;51.154;13.812;2022-12-07T06:06:44;99027.88;;;2.97;83.58
39267;BME280;24967;51.154;13.812;2022-12-07T06:09:12;99029.63;;;2.86;84.11
39267;BME280;24967;51.154;13.812;2022-12-07T06:11:38;99029.13;;;2.81;83.86
39267;BME280;24967;51.154;13.812;2022-12-07T06:14:22;99011.81;;;2.78;83.33
39267;BME280;24967;51.154;13.812;2022-12-07T06:16:49;99016.03;;;2.92;83.82
39267;BME280;24967;51.154;13.812;2022-12-07T06:19:15;99012.31;;;2.83;83.57
39267;BME280;24967;51.154;13.812;2022-12-07T06:21:42;99007.78;;;2.85;83.31
39267;BME280;24967;51.154;13.812;2022-12-07T06:24:08;99008.78;;;2.95;83.36
39267;BME280;24967;51.154;13.812;2022-12-07T06:26:38;99012.84;;;2.64;84.43
39267;BME280;24967;51.154;13.812;2022-12-07T06:29:04;99000.16;;;2.82;83.27
39267;BME280;24967;51.154;13.812;2022-12-07T06:31:31;99006.41;;;2.68;84.02
39267;BME280;24967;51.154;13.812;2022-12-07T06:33:58;99007.59;;;2.64;84.23
39267;BME280;24967;51.154;13.812;2022-12-07T06:36:24;99008.97;;;2.81;83.62
39267;BME280;24967;51.154;13.812;2022-12-07T06:38:50;99004.81;;;2.90;84.10
39267;BME280;24967;51.154;13.812;2022-12-07T06:41:17;99012.22;;;2.96;83.38
39267;BME280;24967;51.154;13.812;2022-12-07T06:43:45;99011.91;;;3.01;82.94
39267;BME280;24967;51.154;13.812;2022-12-07T06:46:11;99013.53;;;2.90;84.28
39267;BME280;24967;51.154;13.812;2022-12-07T06:48:38;99013.84;;;2.74;84.66
39267;BME280;24967;51.154;13.812;2022-12-07T06:51:04;99007.66;;;2.75;85.56
39267;BME280;24967;51.154;13.812;2022-12-07T06:53:31;99012.88;;;2.40;87.93
39267;BME280;24967;51.154;13.812;2022-12-07T06:55:57;99015.50;;;2.40;88.45
39267;BME280;24967;51.154;13.812;2022-12-07T06:58:24;99015.34;;;2.42;88.95
39267;BME280;24967;51.154;13.812;2022-12-07T07:00:52;99015.88;;;2.47;89.78
39267;BME280;24967;51.154;13.812;2022-12-07T07:03:19;99027.34;;;2.57;90.20
39267;BME280;24967;51.154;13.812;2022-12-07T07:05:45;99017.75;;;2.45;90.96
39267;BME280;24967;51.154;13.812;2022-12-07T07:08:12;99018.16;;;2.27;92.64
39267;BME280;24967;51.154;13.812;2022-12-07T07:10:39;99016.69;;;2.23;93.11
39267;BME280;24967;51.154;13.812;2022-12-07T07:13:05;99023.84;;;2.21;94.03
39267;BME280;24967;51.154;13.812;2022-12-07T07:15:32;99018.38;;;2.24;93.87
39267;BME280;24967;51.154;13.812;2022-12-07T07:18:00;99020.63;;;2.05;95.68
39267;BME280;24967;51.154;13.812;2022-12-07T07:20:28;99023.94;;;2.20;95.08
39267;BME280;24967;51.154;13.812;2022-12-07T07:22:55;99029.50;;;2.28;95.13
39267;BME280;24967;51.154;13.812;2022-12-07T07:25:22;99024.28;;;2.15;96.30
39267;BME280;24967;51.154;13.812;2022-12-07T07:27:48;99018.34;;;2.00;97.75
39267;BME280;24967;51.154;13.812;2022-12-07T07:30:15;99018.00;;;2.05;98.39
39267;BME280;24967;51.154;13.812;2022-12-07T07:32:41;99030.75;;;2.22;97.68
39267;BME280;24967;51.154;13.812;2022-12-07T07:35:09;99033.00;;;2.16;98.25
39267;BME280;24967;51.154;13.812;2022-12-07T07:37:36;99036.38;;;2.05;99.49
39267;BME280;24967;51.154;13.812;2022-12-07T07:40:02;99037.06;;;2.20;99.95
39267;BME280;24967;51.154;13.812;2022-12-07T07:42:29;99039.13;;;2.03;100.00
39267;BME280;24967;51.154;13.812;2022-12-07T07:44:56;99033.91;;;2.15;100.00
39267;BME280;24967;51.154;13.812;2022-12-07T07:47:22;99037.13;;;2.31;99.87
39267;BME280;24967;51.154;13.812;2022-12-07T07:49:48;99032.34;;;2.49;99.20
39267;BME280;24967;51.154;13.812;2022-12-07T07:52:16;99048.13;;;2.60;98.96
39267;BME280;24967;51.154;13.812;2022-12-07T07:54:43;99037.84;;;2.57;98.42
39267;BME280;24967;51.154;13.812;2022-12-07T07:57:09;99039.47;;;2.47;98.73
39267;BME280;24967;51.154;13.812;2022-12-07T07:59:36;99042.03;;;2.60;98.84
39267;BME280;24967;51.154;13.812;2022-12-07T08:02:02;99032.50;;;2.35;100.00
39267;BME280;24967;51.154;13.812;2022-12-07T08:04:29;99040.50;;;2.33;100.00
39267;BME280;24967;51.154;13.812;2022-12-07T08:06:56;99046.91;;;2.53;100.00
39267;BME280;24967;51.154;13.812;2022-12-07T08:09:24;99042.22;;;2.69;99.21
39267;BME280;24967;51.154;13.812;2022-12-07T08:11:50;99038.78;;;2.80;99.33
39267;BME280;24967;51.154;13.812;2022-12-07T08:14:17;99041.72;;;2.64;99.77
39267;BME280;24967;51.154;13.812;2022-12-07T08:16:43;99031.38;;;2.50;100.00
39267;BME280;24967;51.154;13.812;2022-12-07T08:19:09;99032.22;;;2.50;100.00
39267;BME280;24967;51.154;13.812;2022-12-07T08:21:36;99029.13;;;2.45;100.00
39267;BME280;24967;51.154;13.812;2022-12-07T08:24:03;99029.88;;;2.59;100.00
39267;BME280;24967;51.154;13.812;2022-12-07T08:26:31;99028.81;;;2.61;100.00
39267;BME280;24967;51.154;13.812;2022-12-07T08:28:58;99023.72;;;2.71;100.00
39267;BME280;24967;51.154;13.812;2022-12-07T08:31:25;99034.97;;;2.73;99.40
39267;BME280;24967;51.154;13.812;2022-12-07T08:33:52;99026.63;;;2.79;100.00
39267;BME280;24967;51.154;13.812;2022-12-07T08:36:19;99023.47;;;2.98;99.28
39267;BME280;24967;51.154;13.812;2022-12-07T08:38:46;99024.34;;;3.10;97.09
39267;BME280;24967;51.154;13.812;2022-12-07T08:41:13;99025.41;;;3.07;97.64
39267;BME280;24967;51.154;13.812;2022-12-07T08:43:40;99025.63;;;3.04;97.31
39267;BME280;24967;51.154;13.812;2022-12-07T08:46:09;99040.00;;;3.22;96.99
39267;BME280;24967;51.154;13.812;2022-12-07T08:48:36;99035.63;;;3.46;95.14
39267;BME280;24967;51.154;13.812;2022-12-07T08:51:05;99031.78;;;3.27;95.18
39267;BME280;24967;51.154;13.812;2022-12-07T08:53:31;99029.38;;;3.24;95.49
39267;BME280;24967;51.154;13.812;2022-12-07T08:55:59;99032.84;;;3.25;96.02
39267;BME280;24967;51.154;13.812;2022-12-07T08:58:25;99036.56;;;3.33;95.58
39267;BME280;24967;51.154;13.812;2022-12-07T09:00:54;99033.81;;;3.35;95.86
39267;BME280;24967;51.154;13.812;2022-12-07T09:03:20;99035.50;;;3.58;94.89
39267;BME280;24967;51.154;13.812;2022-12-07T09:05:46;99040.19;;;3.55;95.01
39267;BME280;24967;51.154;13.812;2022-12-07T09:08:13;99041.00;;;3.78;93.62
39267;BME280;24967;51.154;13.812;2022-12-07T09:10:40;99049.63;;;3.91;92.47
39267;BME280;24967;51.154;13.812;2022-12-07T09:13:06;99038.13;;;3.92;92.31
39267;BME280;24967;51.154;13.812;2022-12-07T09:15:33;99043.88;;;3.75;92.46
39267;BME280;24967;51.154;13.812;2022-12-07T09:18:01;99037.56;;;3.88;92.01
39267;BME280;24967;51.154;13.812;2022-12-07T09:20:27;99046.16;;;3.79;92.11
39267;BME280;24967;51.154;13.812;2022-12-07T09:22:53;99040.75;;;3.81;93.55
39267;BME280;24967;51.154;13.812;2022-12-07T09:25:20;99036.34;;;3.59;92.68
39267;BME280;24967;51.154;13.812;2022-12-07T09:27:46;99037.69;;;3.76;92.73
39267;BME280;24967;51.154;13.812;2022-12-07T09:30:13;99045.16;;;4.14;91.02
39267;BME280;24967;51.154;13.812;2022-12-07T09:32:39;99033.47;;;4.18;89.75
39267;BME280;24967;51.154;13.812;2022-12-07T09:35:07;99043.06;;;3.97;90.70
39267;BME280;24967;51.154;13.812;2022-12-07T09:37:34;99036.34;;;4.04;90.09
39267;BME280;24967;51.154;13.812;2022-12-07T09:40:01;99041.47;;;4.05;89.82
39267;BME280;24967;51.154;13.812;2022-12-07T09:42:28;99045.44;;;4.00;90.02
39267;BME280;24967;51.154;13.812;2022-12-07T09:44:56;99037.75;;;4.30;89.33
39267;BME280;24967;51.154;13.812;2022-12-07T09:47:23;99038.72;;;4.18;89.45
39267;BME280;24967;51.154;13.812;2022-12-07T09:49:50;99034.78;;;4.24;89.00
39267;BME280;24967;51.154;13.812;2022-12-07T09:52:19;99043.00;;;4.19;88.94
39267;BME280;24967;51.154;13.812;2022-12-07T09:54:48;99031.16;;;4.36;88.59
39267;BME280;24967;51.154;13.812;2022-12-07T09:57:16;99033.16;;;4.44;88.00
39267;BME280;24967;51.154;13.812;2022-12-07T09:59:43;99031.56;;;4.52;87.50
39267;BME280;24967;51.154;13.812;2022-12-07T10:02:21;99025.50;;;4.41;87.83
39267;BME280;24967;51.154;13.812;2022-12-07T10:04:49;99019.66;;;4.37;88.02
39267;BME280;24967;51.154;13.812;2022-12-07T10:07:16;99025.88;;;4.36;88.25
39267;BME280;24967;51.154;13.812;2022-12-07T10:09:43;99012.66;;;4.58;87.02
39267;BME280;24967;51.154;13.812;2022-12-07T10:12:11;99017.97;;;4.68;86.43
39267;BME280;24967;51.154;13.812;2022-12-07T10:14:39;99008.91;;;4.72;86.26
39267;BME280;24967;51.154;13.812;2022-12-07T10:19:47;99004.78;;;4.47;87.35
39267;BME280;24967;51.154;13.812;2022-12-07T10:22:14;99003.75;;;4.71;87.35
39267;BME280;24967;51.154;13.812;2022-12-07T10:24:47;99005.75;;;4.78;86.11
39267;BME280;24967;51.154;13.812;2022-12-07T10:27:19;99005.00;;;5.09;85.92
39267;BME280;24967;51.154;13.812;2022-12-07T10:29:50;99004.78;;;5.00;83.70
39267;BME280;24967;51.154;13.812;2022-12-07T10:32:30;98999.38;;;5.02;82.90
39267;BME280;24967;51.154;13.812;2022-12-07T10:35:18;99001.44;;;4.77;82.31
39267;BME280;24967;51.154;13.812;2022-12-07T10:37:45;98998.19;;;4.85;83.26
39267;BME280;24967;51.154;13.812;2022-12-07T10:40:23;98994.09;;;5.23;82.13
39267;BME280;24967;51.154;13.812;2022-12-07T10:43:01;98995.59;;;4.95;82.20
39267;BME280;24967;51.154;13.812;2022-12-07T10:45:28;99003.22;;;4.77;82.98
39267;BME280;24967;51.154;13.812;2022-12-07T10:47:55;99007.91;;;4.73;83.10
39267;BME280;24967;51.154;13.812;2022-12-07T10:53:30;99005.66;;;4.69;83.54
39267;BME280;24967;51.154;13.812;2022-12-07T10:56:04;98998.91;;;4.55;85.33
39267;BME280;24967;51.154;13.812;2022-12-07T10:58:43;98995.97;;;4.69;85.39
39267;BME280;24967;51.154;13.812;2022-12-07T11:01:17;98997.13;;;4.76;84.80
39267;BME280;24967;51.154;13.812;2022-12-07T11:03:51;98992.16;;;4.62;84.63
39267;BME280;24967;51.154;13.812;2022-12-07T11:06:23;98997.00;;;4.78;84.22
39267;BME280;24967;51.154;13.812;2022-12-07T11:09:00;98980.84;;;5.03;83.85
39267;BME280;24967;51.154;13.812;2022-12-07T11:11:32;98984.44;;;4.81;84.68
39267;BME280;24967;51.154;13.812;2022-12-07T11:14:03;98980.16;;;5.11;84.78
39267;BME280;24967;51.154;13.812;2022-12-07T11:16:34;98988.66;;;5.15;84.31
39267;BME280;24967;51.154;13.812;2022-12-07T11:19:13;98991.88;;;4.97;85.28
39267;BME280;24967;51.154;13.812;2022-12-07T11:21:43;98985.22;;;4.93;86.37
39267;BME280;24967;51.154;13.812;2022-12-07T11:24:13;98983.75;;;4.68;86.73
39267;BME280;24967;51.154;13.812;2022-12-07T11:26:46;98979.69;;;4.96;86.15
39267;BME280;24967;51.154;13.812;2022-12-07T11:29:21;98971.47;;;5.20;85.85
39267;BME280;24967;51.154;13.812;2022-12-07T11:31:55;98969.44;;;5.24;84.78
39267;BME280;24967;51.154;13.812;2022-12-07T11:34:25;98963.41;;;5.12;85.22
39267;BME280;24967;51.154;13.812;2022-12-07T11:36:54;98957.38;;;5.21;85.39
39267;BME280;24967;51.154;13.812;2022-12-07T11:39:23;98958.81;;;5.14;85.37
39267;BME280;24967;51.154;13.812;2022-12-07T11:41:52;98965.13;;;5.02;85.60
39267;BME280;24967;51.154;13.812;2022-12-07T11:44:25;98954.94;;;5.09;84.40
39267;BME280;24967;51.154;13.812;2022-12-07T11:46:54;98978.06;;;5.05;85.54
39267;BME280;24967;51.154;13.812;2022-12-07T11:49:23;98976.06;;;4.44;87.23
39267;BME280;24967;51.154;13.812;2022-12-07T11:51:54;98980.69;;;4.20;90.15
39267;BME280;24967;51.154;13.812;2022-12-07T11:54:23;98981.28;;;4.23;91.56
39267;BME280;24967;51.154;13.812;2022-12-07T11:56:53;98979.84;;;4.30;91.48
39267;BME280;24967;51.154;13.812;2022-12-07T11:59:22;98975.81;;;4.15;91.89
39267;BME280;24967;51.154;13.812;2022-12-07T12:01:52;98971.25;;;4.17;92.72
39267;BME280;24967;51.154;13.812;2022-12-07T12:04:28;98967.53;;;4.31;91.23
39267;BME280;24967;51.154;13.812;2022-12-07T12:06:57;98964.59;;;4.02;92.85
39267;BME280;24967;51.154;13.812;2022-12-07T12:09:24;98971.97;;;4.19;92.81
39267;BME280;24967;51.154;13.812;2022-12-07T12:12:08;98967.84;;;4.38;91.99
39267;BME280;24967;51.154;13.812;2022-12-07T12:14:43;98967.50;;;4.42;91.34
39267;BME280;24967;51.154;13.812;2022-12-07T12:19:43;98961.03;;;4.67;90.57
39267;BME280;24967;51.154;13.812;2022-12-07T12:22:30;98956.28;;;4.82;90.37
39267;BME280;24967;51.154;13.812;2022-12-07T12:24:59;98953.44;;;4.53;90.59
39267;BME280;24967;51.154;13.812;2022-12-07T12:27:26;98946.22;;;4.66;89.38
39267;BME280;24967;51.154;13.812;2022-12-07T12:29:55;98954.59;;;4.81;88.02
39267;BME280;24967;51.154;13.812;2022-12-07T12:32:24;98950.88;;;4.83;88.25
39267;BME280;24967;51.154;13.812;2022-12-07T12:35:02;98947.81;;;4.78;86.29
39267;BME280;24967;51.154;13.812;2022-12-07T12:37:44;98949.72;;;4.76;86.21
39267;BME280;24967;51.154;13.812;2022-12-07T12:42:56;98946.84;;;4.79;85.62
39267;BME280;24967;51.154;13.812;2022-12-07T12:45:24;98945.88;;;4.80;85.83
39267;BME280;24967;51.154;13.812;2022-12-07T12:47:54;98944.94;;;4.81;85.57
39267;BME280;24967;51.154;13.812;2022-12-07T12:50:23;98940.75;;;4.79;85.15
39267;BME280;24967;51.154;13.812;2022-12-07T12:52:57;98941.06;;;4.86;85.18
39267;BME280;24967;51.154;13.812;2022-12-07T12:58:28;98937.84;;;4.82;84.29
39267;BME280;24967;51.154;13.812;2022-12-07T13:03:36;98944.84;;;4.93;84.31
39267;BME280;24967;51.154;13.812;2022-12-07T13:06:31;98935.91;;;4.84;84.37
39267;BME280;24967;51.154;13.812;2022-12-07T13:08:58;98936.81;;;4.94;83.77
39267;BME280;24967;51.154;13.812;2022-12-07T13:11:28;98931.31;;;4.76;82.71
39267;BME280;24967;51.154;13.812;2022-12-07T13:16:40;98934.03;;;4.96;82.81
39267;BME280;24967;51.154;13.812;2022-12-07T13:21:53;98931.91;;;5.11;82.72
39267;BME280;24967;51.154;13.812;2022-12-07T13:24:19;98930.59;;;4.95;83.56
39267;BME280;24967;51.154;13.812;2022-12-07T13:26:46;98944.47;;;4.97;84.61
39267;BME280;24967;51.154;13.812;2022-12-07T13:29:12;98939.31;;;4.22;86.95
39267;BME280;24967;51.154;13.812;2022-12-07T13:31:40;98946.75;;;4.17;88.14